Time;durP1;ratioP1;P1;durP2;ratioP2;P2;SDS_P1;SDS_P2;PMS_P1;PMS_P2;Temp;Humidity;BMP_temperature;BMP_pressure;BME280_temperature;BME280_humidity;BME280_pressure;Samples;Min_cycle;Max_cycle;Signal;HPM_P1;HPM_P2
2022/06/05 03:14:26;;;;;;;;;;;18.10;66.50;;;;;;4770397;30;19932;-78
2022/06/05 03:16:52;;;;;;;;;;;18.10;66.50;;;;;;4771918;30;19930;-76
2022/06/05 03:19:18;;;;;;;;;;;18.20;66.90;;;;;;4772036;30;19976;-76
2022/06/05 03:21:43;;;;;;;;;;;18.20;67.20;;;;;;4756302;30;20330;-75
2022/06/05 03:24:09;;;;;;;;;;;18.20;67.10;;;;;;4771121;30;19937;-76
2022/06/05 03:26:35;;;;;;;;;;;18.20;67.50;;;;;;4771932;30;19925;-73
2022/06/05 03:29:00;;;;;;;;;;;18.20;67.20;;;;;;4755771;30;20476;-71
2022/06/05 03:31:26;;;;;;;;;;;18.20;67.40;;;;;;4771273;30;20294;-78
2022/06/05 03:33:52;;;;;;;;;;;18.20;68.10;;;;;;4772372;30;20364;-74
2022/06/05 03:36:18;;;;;;;;;;;18.20;68.20;;;;;;4756045;30;19930;-72
2022/06/05 03:38:43;;;;;;;;;;;18.20;67.90;;;;;;4772333;30;19975;-75
2022/06/05 03:41:09;;;;;;;;;;;18.20;67.90;;;;;;4772080;30;20013;-74
2022/06/05 03:43:35;;;;;;;;;;;18.20;67.90;;;;;;4771238;30;19932;-73
2022/06/05 03:46:01;;;;;;;;;;;18.20;67.90;;;;;;4755374;30;19929;-73
2022/06/05 03:48:28;;;;;;;;;;;18.20;67.80;;;;;;4771858;30;20319;-75
2022/06/05 03:50:53;;;;;;;;;;;18.20;67.90;;;;;;4771983;30;19930;-75
2022/06/05 03:53:19;;;;;;;;;;;18.20;67.90;;;;;;4775215;30;19936;-75
2022/06/05 03:55:44;;;;;;;;;;;18.20;67.80;;;;;;4775107;30;20020;-73
2022/06/05 03:58:10;;;;;;;;;;;18.20;67.90;;;;;;4759414;30;19925;-75
2022/06/05 04:00:36;;;;;;;;;;;18.20;68.00;;;;;;4774941;30;19934;-75
2022/06/05 04:03:01;;;;;;;;;;;18.20;68.00;;;;;;4774475;30;20016;-74
2022/06/05 04:05:27;;;;;;;;;;;18.20;68.00;;;;;;4775150;30;19929;-74
2022/06/05 04:07:53;;;;;;;;;;;18.20;68.00;;;;;;4759962;30;20060;-76
2022/06/05 04:10:19;;;;;;;;;;;18.20;68.10;;;;;;4774746;30;19926;-77
2022/06/05 04:12:46;;;;;;;;;;;18.20;67.90;;;;;;4764836;30;20364;-74
2022/06/05 04:15:12;;;;;;;;;;;18.20;68.10;;;;;;4792674;30;20031;-73
2022/06/05 04:17:38;;;;;;;;;;;18.20;68.10;;;;;;4792750;30;19925;-75
2022/06/05 04:20:04;;;;;;;;;;;18.20;68.20;;;;;;4793347;30;20298;-73
2022/06/05 04:22:30;;;;;;;;;;;18.20;68.10;;;;;;4792864;30;19929;-75
2022/06/05 04:24:56;;;;;;;;;;;18.20;68.20;;;;;;4803652;29;20333;-73
2022/06/05 04:27:22;;;;;;;;;;;18.20;68.20;;;;;;4810696;29;19936;-73
2022/06/05 04:29:47;;;;;;;;;;;18.20;68.30;;;;;;4794920;29;19933;-74
2022/06/05 04:32:13;;;;;;;;;;;18.20;68.30;;;;;;4811218;29;20012;-76
2022/06/05 04:34:39;;;;;;;;;;;18.20;68.20;;;;;;4810420;29;19925;-77
2022/06/05 04:37:06;;;;;;;;;;;18.20;68.10;;;;;;4810099;29;19978;-74
2022/06/05 04:39:31;;;;;;;;;;;18.20;68.20;;;;;;4794726;29;20238;-74
2022/06/05 04:41:57;;;;;;;;;;;18.20;68.20;;;;;;4808241;29;19982;-74
2022/06/05 04:44:23;;;;;;;;;;;18.20;68.40;;;;;;4794801;29;19925;-73
2022/06/05 04:46:48;;;;;;;;;;;18.20;68.50;;;;;;4794502;29;19933;-75
2022/06/05 04:49:14;;;;;;;;;;;18.20;68.40;;;;;;4785249;30;19925;-77
2022/06/05 04:51:40;;;;;;;;;;;18.20;68.50;;;;;;4776147;30;20265;-76
2022/06/05 04:54:06;;;;;;;;;;;18.20;68.30;;;;;;4791814;30;19925;-74
2022/06/05 04:56:32;;;;;;;;;;;18.20;68.30;;;;;;4791951;30;19982;-75
2022/06/05 04:58:58;;;;;;;;;;;18.20;68.50;;;;;;4791860;30;19925;-76
2022/06/05 05:01:25;;;;;;;;;;;18.20;68.40;;;;;;4800894;29;19932;-76
2022/06/05 05:03:52;;;;;;;;;;;18.20;68.50;;;;;;4809170;29;19932;-74
2022/06/05 05:06:18;;;;;;;;;;;18.20;68.50;;;;;;4794083;29;19925;-75
2022/06/05 05:08:44;;;;;;;;;;;18.20;68.60;;;;;;4793810;29;19936;-73
2022/06/05 05:11:09;;;;;;;;;;;18.20;68.60;;;;;;4779219;29;19935;-73
2022/06/05 05:13:35;;;;;;;;;;;18.20;68.60;;;;;;4793065;29;19925;-73
2022/06/05 05:16:01;;;;;;;;;;;18.20;68.60;;;;;;4794596;29;19986;-75
2022/06/05 05:18:27;;;;;;;;;;;18.20;68.70;;;;;;4793732;29;19925;-74
2022/06/05 05:20:53;;;;;;;;;;;18.20;68.70;;;;;;4809846;29;19952;-73
2022/06/05 05:23:19;;;;;;;;;;;18.20;68.60;;;;;;4810288;29;20241;-76
2022/06/05 05:25:46;;;;;;;;;;;18.20;68.40;;;;;;4796949;29;19925;-76
2022/06/05 05:28:12;;;;;;;;;;;18.20;68.50;;;;;;4775904;30;19926;-73
2022/06/05 05:30:41;;;;;;;;;;;18.20;68.70;;;;;;4791287;30;20020;-74
2022/06/05 05:33:07;;;;;;;;;;;18.20;68.60;;;;;;4775233;30;19933;-74
2022/06/05 05:35:33;;;;;;;;;;;18.20;68.80;;;;;;4790941;30;19925;-75
2022/06/05 05:37:59;;;;;;;;;;;18.30;68.70;;;;;;4775733;30;19925;-76
2022/06/05 05:43:11;;;;;;;;;;;18.30;69.40;;;;;;4791314;30;19925;-78
2022/06/05 05:45:40;;;;;;;;;;;18.30;69.20;;;;;;4775588;30;20409;-74
2022/06/05 05:48:06;;;;;;;;;;;18.30;69.80;;;;;;4791612;30;19925;-79
2022/06/05 05:50:34;;;;;;;;;;;18.30;70.00;;;;;;4759816;30;19921;-80
2022/06/05 05:53:00;;;;;;;;;;;18.30;69.70;;;;;;4791072;30;19925;-79
2022/06/05 05:55:25;;;;;;;;;;;18.20;69.80;;;;;;4790705;30;20285;-77
2022/06/05 05:57:51;;;;;;;;;;;18.20;69.80;;;;;;4774719;30;19988;-78
2022/06/05 06:00:18;;;;;;;;;;;18.20;70.10;;;;;;4774848;30;20310;-76
2022/06/05 06:02:44;;;;;;;;;;;18.20;69.70;;;;;;4790365;30;19925;-80
2022/06/05 06:05:12;;;;;;;;;;;18.20;69.70;;;;;;4773298;30;19929;-77
2022/06/05 06:07:38;;;;;;;;;;;18.20;69.70;;;;;;4775285;30;20308;-81
2022/06/05 06:10:04;;;;;;;;;;;18.20;69.80;;;;;;4773228;30;19937;-79
2022/06/05 06:12:29;;;;;;;;;;;18.20;69.70;;;;;;4784609;30;19940;-78
2022/06/05 06:14:55;;;;;;;;;;;18.20;69.70;;;;;;4774695;30;19925;-77
2022/06/05 06:17:21;;;;;;;;;;;18.20;69.80;;;;;;4774579;30;19929;-79
2022/06/05 06:19:47;;;;;;;;;;;18.20;70.60;;;;;;4790639;30;19925;-76
2022/06/05 06:22:12;;;;;;;;;;;18.20;70.10;;;;;;4759427;30;19968;-75
2022/06/05 06:24:38;;;;;;;;;;;18.30;70.10;;;;;;4774772;30;19922;-73
2022/06/05 06:27:04;;;;;;;;;;;18.30;70.00;;;;;;4790552;30;20012;-75
2022/06/05 06:29:30;;;;;;;;;;;18.30;70.00;;;;;;4790154;30;19921;-75
2022/06/05 06:31:56;;;;;;;;;;;18.20;69.80;;;;;;4790452;30;19983;-75
2022/06/05 06:34:21;;;;;;;;;;;18.20;69.80;;;;;;4790470;30;20245;-74
2022/06/05 06:36:47;;;;;;;;;;;18.30;69.80;;;;;;4790372;30;19934;-76
2022/06/05 06:39:13;;;;;;;;;;;18.30;69.80;;;;;;4790431;30;20369;-75
2022/06/05 06:41:38;;;;;;;;;;;18.20;69.70;;;;;;4790183;30;19925;-74
2022/06/05 06:44:04;;;;;;;;;;;18.20;69.70;;;;;;4790328;30;19936;-78
2022/06/05 06:46:30;;;;;;;;;;;18.20;69.60;;;;;;4759584;30;19929;-75
2022/06/05 06:48:56;;;;;;;;;;;18.20;70.10;;;;;;4790299;30;20337;-74
2022/06/05 06:51:21;;;;;;;;;;;18.20;69.80;;;;;;4790226;30;19921;-75
2022/06/05 06:53:47;;;;;;;;;;;18.30;69.80;;;;;;4790338;30;20291;-76
2022/06/05 06:56:14;;;;;;;;;;;18.30;69.80;;;;;;4774564;30;19929;-77
2022/06/05 06:58:41;;;;;;;;;;;18.30;69.90;;;;;;4790588;30;19976;-76
2022/06/05 07:01:06;;;;;;;;;;;18.30;69.80;;;;;;4790343;30;19937;-77
2022/06/05 07:03:33;;;;;;;;;;;18.30;69.70;;;;;;4790422;30;20249;-77
2022/06/05 07:06:00;;;;;;;;;;;18.30;69.70;;;;;;4774704;30;19925;-77
2022/06/05 07:08:25;;;;;;;;;;;18.30;69.70;;;;;;4774464;30;20398;-76
2022/06/05 07:10:51;;;;;;;;;;;18.30;69.70;;;;;;4773458;30;19929;-74
2022/06/05 07:13:17;;;;;;;;;;;18.40;69.70;;;;;;4773726;30;19986;-76
2022/06/05 07:15:43;;;;;;;;;;;18.40;69.70;;;;;;4790107;30;20230;-77
2022/06/05 07:18:08;;;;;;;;;;;18.40;69.70;;;;;;4790094;30;19926;-74
2022/06/05 07:20:35;;;;;;;;;;;18.40;70.10;;;;;;4789767;30;19921;-77
2022/06/05 07:23:01;;;;;;;;;;;18.40;70.00;;;;;;4774018;30;20021;-78
2022/06/05 07:25:27;;;;;;;;;;;18.40;69.70;;;;;;4790225;29;19922;-76
2022/06/05 07:27:53;;;;;;;;;;;18.40;69.80;;;;;;4793058;30;19922;-75
2022/06/05 07:30:18;;;;;;;;;;;18.40;69.80;;;;;;4793158;30;19936;-77
2022/06/05 07:32:47;;;;;;;;;;;18.40;69.70;;;;;;4777607;30;19994;-79
2022/06/05 07:35:12;;;;;;;;;;;18.50;69.80;;;;;;4793381;30;19937;-75
2022/06/05 07:37:38;;;;;;;;;;;18.40;69.60;;;;;;4793744;30;19925;-77
2022/06/05 07:40:04;;;;;;;;;;;18.40;69.60;;;;;;4792829;30;19926;-76
2022/06/05 07:42:30;;;;;;;;;;;18.50;70.00;;;;;;4785266;30;19995;-78
2022/06/05 07:44:55;;;;;;;;;;;18.50;69.80;;;;;;4766975;30;19961;-77
2022/06/05 07:47:21;;;;;;;;;;;18.40;69.80;;;;;;4790298;30;19971;-80
2022/06/05 07:49:47;;;;;;;;;;;18.50;69.70;;;;;;4770403;30;19925;-81
2022/06/05 07:54:57;;;;;;;;;;;18.50;69.70;;;;;;4778657;30;19926;-81
2022/06/05 07:57:23;;;;;;;;;;;18.50;69.70;;;;;;4785900;30;19969;-77
2022/06/05 07:59:49;;;;;;;;;;;18.50;69.80;;;;;;4790655;30;20325;-77
2022/06/05 08:02:15;;;;;;;;;;;18.60;69.90;;;;;;4789169;29;19926;-76
2022/06/05 08:04:42;;;;;;;;;;;18.50;70.00;;;;;;4780410;30;19936;-78
2022/06/05 08:07:10;;;;;;;;;;;18.60;69.90;;;;;;4781184;29;19967;-78
2022/06/05 08:09:36;;;;;;;;;;;18.60;69.90;;;;;;4778841;29;20012;-77
2022/06/05 08:12:03;;;;;;;;;;;18.60;69.80;;;;;;4793455;29;20009;-77
2022/06/05 08:14:32;;;;;;;;;;;18.60;69.80;;;;;;4782125;29;19925;-78
2022/06/05 08:16:57;;;;;;;;;;;18.60;69.90;;;;;;4793796;29;19925;-78
2022/06/05 08:19:23;;;;;;;;;;;18.60;69.80;;;;;;4749693;30;19926;-81
2022/06/05 08:21:51;;;;;;;;;;;18.60;69.70;;;;;;4766194;30;19929;-78
2022/06/05 08:24:16;;;;;;;;;;;18.60;69.70;;;;;;4791307;30;19932;-76
2022/06/05 08:26:42;;;;;;;;;;;18.60;69.70;;;;;;4776656;30;20007;-77
2022/06/05 08:29:08;;;;;;;;;;;18.60;69.80;;;;;;4792289;30;20352;-76
2022/06/05 08:31:34;;;;;;;;;;;18.60;70.10;;;;;;4795081;29;20234;-76
2022/06/05 08:34:01;;;;;;;;;;;18.70;70.20;;;;;;4779838;29;19940;-77
2022/06/05 08:36:27;;;;;;;;;;;18.60;70.00;;;;;;4795115;29;19933;-77
2022/06/05 08:41:43;;;;;;;;;;;18.70;70.80;;;;;;4792358;30;19990;-81
2022/06/05 08:44:11;;;;;;;;;;;18.70;70.70;;;;;;4776142;30;19978;-74
2022/06/05 08:46:47;;;;;;;;;;;18.70;71.30;;;;;;4792390;30;20245;-76
2022/06/05 08:49:19;;;;;;;;;;;18.70;71.50;;;;;;4784039;29;19928;-78
2022/06/05 08:52:00;;;;;;;;;;;18.70;71.60;;;;;;4794386;29;19921;-78
2022/06/05 08:54:34;;;;;;;;;;;18.70;72.00;;;;;;4810136;29;19921;-78
2022/06/05 08:57:03;;;;;;;;;;;18.80;71.90;;;;;;4793429;29;19929;-80
2022/06/05 08:59:38;;;;;;;;;;;18.80;72.10;;;;;;4782751;29;19948;-80
2022/06/05 09:02:13;;;;;;;;;;;18.80;72.00;;;;;;4775976;30;20023;-79
2022/06/05 09:04:41;;;;;;;;;;;18.70;72.20;;;;;;4791867;30;19921;-75
2022/06/05 09:07:18;;;;;;;;;;;18.80;72.50;;;;;;4770663;29;19929;-78
2022/06/05 09:10:04;;;;;;;;;;;18.80;72.50;;;;;;4797417;29;19952;-80
2022/06/05 09:12:34;;;;;;;;;;;18.80;72.10;;;;;;4785992;29;20008;-78
2022/06/05 09:15:05;;;;;;;;;;;18.80;71.90;;;;;;4785148;30;19935;-80
2022/06/05 09:17:31;;;;;;;;;;;18.80;71.70;;;;;;4770425;30;19973;-77
2022/06/05 09:19:57;;;;;;;;;;;18.80;71.50;;;;;;4787558;29;19968;-80
2022/06/05 09:22:36;;;;;;;;;;;18.80;71.60;;;;;;4787506;29;20024;-79
2022/06/05 09:25:06;;;;;;;;;;;18.80;71.50;;;;;;4796018;29;19921;-79
2022/06/05 09:27:32;;;;;;;;;;;18.80;71.60;;;;;;4777703;29;19922;-78
2022/06/05 09:30:14;;;;;;;;;;;18.80;71.20;;;;;;4771692;30;19929;-79
2022/06/05 09:33:02;;;;;;;;;;;18.90;71.90;;;;;;4752234;30;19925;-85
2022/06/05 09:35:35;;;;;;;;;;;18.90;72.10;;;;;;4767993;29;19921;-80
2022/06/05 09:38:16;;;;;;;;;;;18.90;72.30;;;;;;4776623;29;20023;-77
2022/06/05 09:41:07;;;;;;;;;;;18.90;72.60;;;;;;4796480;29;19990;-79
2022/06/05 09:43:59;;;;;;;;;;;19.00;72.70;;;;;;4782532;29;20398;-77
2022/06/05 09:46:36;;;;;;;;;;;18.90;72.20;;;;;;4783992;30;19929;-79
2022/06/05 09:49:13;;;;;;;;;;;18.90;73.50;;;;;;4767569;30;19957;-77
2022/06/05 09:51:45;;;;;;;;;;;19.00;73.20;;;;;;4783405;29;19929;-79
2022/06/05 09:54:22;;;;;;;;;;;19.00;73.30;;;;;;4790976;29;19921;-77
2022/06/05 09:59:56;;;;;;;;;;;19.10;74.00;;;;;;4796503;29;19921;-80
2022/06/05 10:02:26;;;;;;;;;;;19.10;74.60;;;;;;4764754;29;20019;-82
2022/06/05 10:04:55;;;;;;;;;;;19.10;74.50;;;;;;4783414;30;19933;-79
2022/06/05 10:07:29;;;;;;;;;;;19.10;74.70;;;;;;4766640;30;19922;-78
2022/06/05 10:09:55;;;;;;;;;;;19.10;74.10;;;;;;4768828;30;19921;-79
2022/06/05 10:12:27;;;;;;;;;;;19.10;74.70;;;;;;4755815;29;19925;-80
2022/06/05 10:15:01;;;;;;;;;;;19.10;75.20;;;;;;4769847;30;19933;-78
2022/06/05 10:17:48;;;;;;;;;;;19.10;74.90;;;;;;4750669;30;19925;-78
2022/06/05 10:20:13;;;;;;;;;;;19.10;74.60;;;;;;4789169;29;19997;-80
2022/06/05 10:22:39;;;;;;;;;;;19.10;73.80;;;;;;4769830;30;19941;-76
2022/06/05 10:25:23;;;;;;;;;;;19.10;73.80;;;;;;4783528;29;19936;-77
2022/06/05 10:27:54;;;;;;;;;;;19.10;73.80;;;;;;4789528;29;19969;-75
2022/06/05 10:30:20;;;;;;;;;;;19.10;73.80;;;;;;4759863;30;19930;-76
2022/06/05 10:33:12;;;;;;;;;;;19.10;74.00;;;;;;4773987;30;19936;-76
2022/06/05 10:35:57;;;;;;;;;;;19.10;73.80;;;;;;4780048;29;19930;-77
2022/06/05 10:38:31;;;;;;;;;;;19.10;73.80;;;;;;4780728;29;19925;-80
2022/06/05 10:41:04;;;;;;;;;;;19.10;73.60;;;;;;4771419;30;19929;-76
2022/06/05 10:43:32;;;;;;;;;;;19.10;73.60;;;;;;4767267;30;20002;-75
2022/06/05 10:46:16;;;;;;;;;;;19.10;73.60;;;;;;4768927;29;19926;-80
2022/06/05 10:48:47;;;;;;;;;;;19.10;73.50;;;;;;4789816;29;20025;-79
2022/06/05 10:51:17;;;;;;;;;;;19.10;73.40;;;;;;4774572;30;19925;-77
2022/06/05 10:53:55;;;;;;;;;;;19.10;73.30;;;;;;4786468;29;19991;-78
2022/06/05 10:56:42;;;;;;;;;;;19.10;73.20;;;;;;4785905;30;19926;-78
2022/06/05 10:59:30;;;;;;;;;;;19.10;73.20;;;;;;4781456;30;20284;-77
2022/06/05 11:02:01;;;;;;;;;;;19.10;73.10;;;;;;4792075;29;20020;-75
2022/06/05 11:04:39;;;;;;;;;;;19.10;73.10;;;;;;4788877;30;20350;-77
2022/06/05 11:07:16;;;;;;;;;;;19.10;73.00;;;;;;4769283;30;20365;-78
2022/06/05 11:09:50;;;;;;;;;;;19.10;73.00;;;;;;4776212;30;20066;-80
2022/06/05 11:15:09;;;;;;;;;;;19.10;72.90;;;;;;4792684;30;19993;-76
2022/06/05 11:17:34;;;;;;;;;;;19.10;72.90;;;;;;4773313;30;19948;-79
2022/06/05 11:20:05;;;;;;;;;;;19.10;72.80;;;;;;4793451;30;19925;-77
2022/06/05 11:22:33;;;;;;;;;;;19.10;72.60;;;;;;4794890;29;19925;-77
2022/06/05 11:25:18;;;;;;;;;;;19.10;72.80;;;;;;4776965;29;20396;-77
2022/06/05 11:27:53;;;;;;;;;;;19.10;73.10;;;;;;4776557;30;20356;-77
2022/06/05 11:30:30;;;;;;;;;;;19.10;73.10;;;;;;4793289;29;20335;-78
2022/06/05 11:33:12;;;;;;;;;;;19.10;73.30;;;;;;4792081;30;19936;-77
2022/06/05 11:35:46;;;;;;;;;;;19.10;73.80;;;;;;4787490;29;19926;-78
2022/06/05 11:38:12;;;;;;;;;;;19.10;73.20;;;;;;4787308;30;19940;-78
2022/06/05 11:40:41;;;;;;;;;;;19.10;73.60;;;;;;4760471;30;19926;-75
2022/06/05 11:43:12;;;;;;;;;;;19.20;72.80;;;;;;4762613;30;19926;-78
2022/06/05 11:45:41;;;;;;;;;;;19.20;73.00;;;;;;4787382;30;19968;-81
2022/06/05 11:48:17;;;;;;;;;;;19.20;73.30;;;;;;4792773;30;19925;-76
2022/06/05 11:50:47;;;;;;;;;;;19.20;73.50;;;;;;4793457;30;19954;-77
2022/06/05 11:53:16;;;;;;;;;;;19.20;73.20;;;;;;4793026;30;20020;-77
2022/06/05 11:55:49;;;;;;;;;;;19.20;73.30;;;;;;4791593;30;19925;-76
2022/06/05 11:58:15;;;;;;;;;;;19.20;73.20;;;;;;4800128;29;20259;-79
2022/06/05 12:00:50;;;;;;;;;;;19.20;73.30;;;;;;4810970;29;19925;-80
2022/06/05 12:03:25;;;;;;;;;;;19.20;73.20;;;;;;4777816;30;19951;-79
2022/06/05 12:06:10;;;;;;;;;;;19.20;73.20;;;;;;4776726;30;20085;-80
2022/06/05 12:08:47;;;;;;;;;;;19.20;73.20;;;;;;4795363;29;20329;-79
2022/06/05 12:11:31;;;;;;;;;;;19.20;73.70;;;;;;4801248;29;20007;-77
2022/06/05 12:14:15;;;;;;;;;;;19.30;73.60;;;;;;4761766;30;19925;-79
2022/06/05 12:16:44;;;;;;;;;;;19.20;73.50;;;;;;4792401;30;19925;-78
2022/06/05 12:19:16;;;;;;;;;;;19.20;73.60;;;;;;4771159;30;19988;-77
2022/06/05 12:22:02;;;;;;;;;;;19.20;73.40;;;;;;4744541;30;19932;-78
2022/06/05 12:24:32;;;;;;;;;;;19.20;73.20;;;;;;4775244;30;20013;-78
2022/06/05 12:27:04;;;;;;;;;;;19.30;73.30;;;;;;4759179;30;20257;-79
2022/06/05 12:29:52;;;;;;;;;;;19.30;73.30;;;;;;4782376;30;20401;-78
2022/06/05 12:32:20;;;;;;;;;;;19.30;73.30;;;;;;4792716;30;19935;-77
2022/06/05 12:34:50;;;;;;;;;;;19.30;73.40;;;;;;4776996;30;19926;-79
2022/06/05 12:37:27;;;;;;;;;;;19.30;73.40;;;;;;4777051;30;19994;-78
2022/06/05 12:39:54;;;;;;;;;;;19.30;73.50;;;;;;4766218;30;19983;-78
2022/06/05 12:42:26;;;;;;;;;;;19.30;73.00;;;;;;4774550;30;20024;-78
2022/06/05 12:44:53;;;;;;;;;;;19.30;73.20;;;;;;4774444;30;20396;-77
2022/06/05 12:47:42;;;;;;;;;;;19.30;73.10;;;;;;4777083;30;19925;-77
2022/06/05 12:50:16;;;;;;;;;;;19.30;73.90;;;;;;4753763;30;20277;-78
2022/06/05 12:53:00;;;;;;;;;;;19.40;73.30;;;;;;4773405;30;19937;-80
2022/06/05 12:55:29;;;;;;;;;;;19.30;74.20;;;;;;4791716;30;19929;-80
2022/06/05 12:58:00;;;;;;;;;;;19.40;74.60;;;;;;4775746;30;20326;-79
2022/06/05 13:00:34;;;;;;;;;;;19.40;75.80;;;;;;4790710;30;19921;-77
2022/06/05 13:03:38;;;;;;;;;;;19.40;75.30;;;;;;4790510;30;19936;-77
2022/06/05 13:06:08;;;;;;;;;;;19.40;75.10;;;;;;4736992;30;19923;-79
2022/06/05 13:08:37;;;;;;;;;;;19.40;75.30;;;;;;4736274;30;19960;-78
2022/06/05 13:11:11;;;;;;;;;;;19.40;75.50;;;;;;4755252;30;20276;-80
2022/06/05 13:13:51;;;;;;;;;;;19.40;75.60;;;;;;4757588;30;19963;-80
2022/06/05 13:16:29;;;;;;;;;;;19.40;75.60;;;;;;4760121;30;19929;-79
2022/06/05 13:19:16;;;;;;;;;;;19.40;75.30;;;;;;4787274;30;19925;-77
2022/06/05 13:22:00;;;;;;;;;;;19.40;75.40;;;;;;4782785;29;19976;-77
2022/06/05 13:24:31;;;;;;;;;;;19.40;75.30;;;;;;4787435;29;20348;-78
2022/06/05 13:27:09;;;;;;;;;;;19.40;75.20;;;;;;4791426;30;19925;-80
2022/06/05 13:29:38;;;;;;;;;;;19.40;75.10;;;;;;4773628;30;19925;-79
2022/06/05 13:32:16;;;;;;;;;;;19.40;75.20;;;;;;4773415;30;19981;-78
2022/06/05 13:34:47;;;;;;;;;;;19.40;75.00;;;;;;4773764;30;19926;-79
2022/06/05 13:37:18;;;;;;;;;;;19.40;75.00;;;;;;4773536;30;19925;-80
2022/06/05 13:40:03;;;;;;;;;;;19.40;74.80;;;;;;4791419;30;19944;-77
2022/06/05 13:42:34;;;;;;;;;;;19.40;74.90;;;;;;4791030;30;19932;-77
2022/06/05 13:45:01;;;;;;;;;;;19.40;74.80;;;;;;4775594;30;19930;-77
2022/06/05 13:47:33;;;;;;;;;;;19.40;74.70;;;;;;4759159;30;19929;-81
2022/06/05 13:53:26;;;;;;;;;;;19.40;74.60;;;;;;4789737;29;19913;-79
2022/06/05 13:55:59;;;;;;;;;;;19.40;74.10;;;;;;4790097;30;19936;-79
2022/06/05 13:58:35;;;;;;;;;;;19.40;74.30;;;;;;4773838;30;19936;-78
2022/06/05 14:01:08;;;;;;;;;;;19.40;74.40;;;;;;4790566;30;19958;-78
2022/06/05 14:03:49;;;;;;;;;;;19.40;74.40;;;;;;4792805;29;19925;-76
2022/06/05 14:06:14;;;;;;;;;;;19.40;74.40;;;;;;4808791;29;19925;-79
2022/06/05 14:08:49;;;;;;;;;;;19.40;74.40;;;;;;4775464;30;20265;-82
2022/06/05 14:11:41;;;;;;;;;;;19.40;74.20;;;;;;4760081;30;19931;-77
2022/06/05 14:14:07;;;;;;;;;;;19.40;74.20;;;;;;4767238;30;19980;-78
2022/06/05 14:16:35;;;;;;;;;;;19.40;74.30;;;;;;4790673;30;20444;-78
2022/06/05 14:19:03;;;;;;;;;;;19.40;74.20;;;;;;4790765;30;19925;-77
2022/06/05 14:21:31;;;;;;;;;;;19.40;74.00;;;;;;4775135;30;19925;-79
2022/06/05 14:23:57;;;;;;;;;;;19.40;74.00;;;;;;4790766;30;20272;-78
2022/06/05 14:26:48;;;;;;;;;;;19.40;73.90;;;;;;4788568;29;19925;-79
2022/06/05 14:29:16;;;;;;;;;;;19.40;73.90;;;;;;4787211;30;19932;-78
2022/06/05 14:31:42;;;;;;;;;;;19.40;73.90;;;;;;4790054;30;20076;-79
2022/06/05 14:34:15;;;;;;;;;;;19.40;73.90;;;;;;4790033;30;19925;-78
2022/06/05 14:36:47;;;;;;;;;;;19.40;73.80;;;;;;4790590;30;19925;-78
2022/06/05 14:39:17;;;;;;;;;;;19.40;73.80;;;;;;4790583;30;20377;-78
2022/06/05 14:41:54;;;;;;;;;;;19.40;73.70;;;;;;4783141;30;19942;-79
2022/06/05 14:44:20;;;;;;;;;;;19.40;73.70;;;;;;4790252;30;20031;-78
2022/06/05 14:46:57;;;;;;;;;;;19.40;73.70;;;;;;4790651;30;20082;-79
2022/06/05 14:49:31;;;;;;;;;;;19.40;73.70;;;;;;4790581;30;19925;-79
2022/06/05 14:52:20;;;;;;;;;;;19.40;73.60;;;;;;4774451;30;19925;-76
2022/06/05 14:57:51;;;;;;;;;;;19.40;74.10;;;;;;4808119;29;19925;-78
2022/06/05 15:00:19;;;;;;;;;;;19.40;73.60;;;;;;4791984;29;20327;-77
2022/06/05 15:02:48;;;;;;;;;;;19.40;73.40;;;;;;4774020;30;20246;-77
2022/06/05 15:05:22;;;;;;;;;;;19.50;73.70;;;;;;4784954;30;20008;-80
2022/06/05 15:07:58;;;;;;;;;;;19.50;74.70;;;;;;4789956;30;19933;-77
2022/06/05 15:10:56;;;;;;;;;;;19.50;74.50;;;;;;4774108;30;20321;-78
2022/06/05 15:13:28;;;;;;;;;;;19.50;74.00;;;;;;4759763;30;19922;-80
2022/06/05 15:15:55;;;;;;;;;;;19.50;74.00;;;;;;4774005;30;20342;-76
2022/06/05 15:18:22;;;;;;;;;;;19.50;74.10;;;;;;4787358;29;19921;-75
2022/06/05 15:21:06;;;;;;;;;;;19.50;74.00;;;;;;4789989;30;20056;-79
2022/06/05 15:23:38;;;;;;;;;;;19.50;74.30;;;;;;4774087;30;19929;-76
2022/06/05 15:26:03;;;;;;;;;;;19.50;74.20;;;;;;4789245;30;20321;-76
2022/06/05 15:28:50;;;;;;;;;;;19.50;74.80;;;;;;4790248;30;19925;-80
2022/06/05 15:31:16;;;;;;;;;;;19.60;74.60;;;;;;4790061;30;19972;-79
2022/06/05 15:33:59;;;;;;;;;;;19.60;75.40;;;;;;4773964;30;19968;-77
2022/06/05 15:36:28;;;;;;;;;;;19.60;75.30;;;;;;4773762;30;19941;-77
2022/06/05 15:39:05;;;;;;;;;;;19.60;75.60;;;;;;4789680;30;20279;-80
2022/06/05 15:42:01;;;;;;;;;;;19.60;76.00;;;;;;4790072;30;19933;-78
2022/06/05 15:44:36;;;;;;;;;;;19.70;75.50;;;;;;4756553;29;20013;-79
2022/06/05 15:47:20;;;;;;;;;;;19.70;75.80;;;;;;4771380;30;19928;-78
2022/06/05 15:49:57;;;;;;;;;;;19.70;75.60;;;;;;4759601;30;20020;-79
2022/06/05 15:52:38;;;;;;;;;;;19.70;76.30;;;;;;4775523;30;20353;-78
2022/06/05 15:55:15;;;;;;;;;;;19.70;76.00;;;;;;4747314;30;20033;-77
2022/06/05 16:00:26;;;;;;;;;;;19.70;76.30;;;;;;4773968;30;19926;-78
2022/06/05 16:02:53;;;;;;;;;;;19.70;76.40;;;;;;4792550;30;19921;-78
2022/06/05 16:05:21;;;;;;;;;;;19.70;76.20;;;;;;4777995;30;20365;-78
2022/06/05 16:07:51;;;;;;;;;;;19.60;76.20;;;;;;4792876;30;19982;-78
2022/06/05 16:10:39;;;;;;;;;;;19.70;76.30;;;;;;4777503;30;20038;-78
2022/06/05 16:13:05;;;;;;;;;;;19.60;76.10;;;;;;4776228;30;19925;-78
2022/06/05 16:15:40;;;;;;;;;;;19.60;76.10;;;;;;4794694;29;19932;-77
2022/06/05 16:18:06;;;;;;;;;;;19.60;76.00;;;;;;4794570;29;19993;-79
2022/06/05 16:20:47;;;;;;;;;;;19.60;76.20;;;;;;4794431;29;19921;-77
2022/06/05 16:23:13;;;;;;;;;;;19.60;75.80;;;;;;4794715;29;19957;-80
2022/06/05 16:25:46;;;;;;;;;;;19.60;75.80;;;;;;4792671;30;20368;-80
2022/06/05 16:28:18;;;;;;;;;;;19.60;75.80;;;;;;4776988;30;20408;-78
2022/06/05 16:30:45;;;;;;;;;;;19.60;75.90;;;;;;4792504;30;19947;-78
2022/06/05 16:33:37;;;;;;;;;;;19.60;75.60;;;;;;4775343;30;19980;-80
2022/06/05 16:38:54;;;;;;;;;;;19.60;75.20;;;;;;4773922;30;20334;-78
2022/06/05 16:41:21;;;;;;;;;;;19.60;75.20;;;;;;4773079;30;20068;-78
2022/06/05 16:44:00;;;;;;;;;;;19.60;75.10;;;;;;4757831;30;20419;-77
2022/06/05 16:46:32;;;;;;;;;;;19.60;75.00;;;;;;4747005;30;20346;-77
2022/06/05 16:48:59;;;;;;;;;;;19.60;75.10;;;;;;4776250;30;20369;-77
2022/06/05 16:51:44;;;;;;;;;;;19.60;75.00;;;;;;4792042;30;19931;-75
2022/06/05 16:54:16;;;;;;;;;;;19.60;74.90;;;;;;4792237;30;19929;-77
2022/06/05 16:57:03;;;;;;;;;;;19.60;74.90;;;;;;4791782;30;19926;-76
2022/06/05 16:59:30;;;;;;;;;;;19.60;74.90;;;;;;4810057;29;19921;-77
2022/06/05 17:01:59;;;;;;;;;;;19.70;74.90;;;;;;4794027;29;20272;-77
2022/06/05 17:04:24;;;;;;;;;;;19.70;74.80;;;;;;4794196;29;20253;-76
2022/06/05 17:07:05;;;;;;;;;;;19.60;74.70;;;;;;4793777;29;19925;-76
2022/06/05 17:09:31;;;;;;;;;;;19.60;74.70;;;;;;4783937;30;20004;-77
2022/06/05 17:11:57;;;;;;;;;;;19.60;74.70;;;;;;4791809;30;20265;-77
2022/06/05 17:14:29;;;;;;;;;;;19.60;74.60;;;;;;4791277;30;19925;-77
2022/06/05 17:17:03;;;;;;;;;;;19.60;74.70;;;;;;4791538;30;20265;-76
2022/06/05 17:19:40;;;;;;;;;;;19.70;74.60;;;;;;4794204;29;20077;-79
2022/06/05 17:22:12;;;;;;;;;;;19.70;74.70;;;;;;4809962;29;20138;-77
2022/06/05 17:24:37;;;;;;;;;;;19.70;74.60;;;;;;4774167;30;20322;-77
2022/06/05 17:27:09;;;;;;;;;;;19.70;74.60;;;;;;4774411;30;20038;-78
2022/06/05 17:29:40;;;;;;;;;;;19.70;74.60;;;;;;4773611;30;19981;-75
2022/06/05 17:32:10;;;;;;;;;;;19.70;74.50;;;;;;4772616;30;19925;-76
2022/06/05 17:35:00;;;;;;;;;;;19.70;74.50;;;;;;4773413;30;20078;-77
2022/06/05 17:37:37;;;;;;;;;;;19.70;74.50;;;;;;4773752;30;19926;-76
2022/06/05 17:40:14;;;;;;;;;;;19.70;74.40;;;;;;4788818;30;20287;-76
2022/06/05 17:42:50;;;;;;;;;;;19.70;74.40;;;;;;4791264;30;19969;-78
2022/06/05 17:45:16;;;;;;;;;;;19.70;74.30;;;;;;4791791;30;20273;-75
2022/06/05 17:47:48;;;;;;;;;;;19.70;74.30;;;;;;4791144;30;19925;-77
2022/06/05 17:50:33;;;;;;;;;;;19.70;74.20;;;;;;4793655;29;19925;-76
2022/06/05 17:53:01;;;;;;;;;;;19.70;74.50;;;;;;4772088;29;20309;-77
2022/06/05 17:55:28;;;;;;;;;;;19.70;74.20;;;;;;4763931;30;19926;-78
2022/06/05 17:58:01;;;;;;;;;;;19.70;74.10;;;;;;4773270;30;19932;-77
2022/06/05 18:00:29;;;;;;;;;;;19.70;74.10;;;;;;4773298;30;19933;-77
2022/06/05 18:02:54;;;;;;;;;;;19.70;74.10;;;;;;4787496;30;19926;-77
2022/06/05 18:05:26;;;;;;;;;;;19.70;74.10;;;;;;4790843;30;20365;-76
2022/06/05 18:07:56;;;;;;;;;;;19.70;74.10;;;;;;4792367;29;19990;-78
2022/06/05 18:10:26;;;;;;;;;;;19.70;74.10;;;;;;4808550;29;19927;-77
2022/06/05 18:12:52;;;;;;;;;;;19.70;74.10;;;;;;4808379;29;20030;-77
2022/06/05 18:15:20;;;;;;;;;;;19.70;74.00;;;;;;4808716;29;19973;-78
2022/06/05 18:17:54;;;;;;;;;;;19.70;73.90;;;;;;4801475;29;19925;-76